sensor_id;sensor_type;location;lat;lon;timestamp;P1;durP1;ratioP1;P2;durP2;ratioP2
10719;SDS011;5411;58.386;15.560;2024-02-26T00:00:53;4.50;;;3.03;;
10719;SDS011;5411;58.386;15.560;2024-02-26T00:03:21;3.70;;;2.90;;
10719;SDS011;5411;58.386;15.560;2024-02-26T00:05:49;5.43;;;3.07;;
10719;SDS011;5411;58.386;15.560;2024-02-26T00:08:18;3.87;;;3.10;;
10719;SDS011;5411;58.386;15.560;2024-02-26T00:10:47;3.50;;;3.10;;
10719;SDS011;5411;58.386;15.560;2024-02-26T00:13:15;4.27;;;3.13;;
10719;SDS011;5411;58.386;15.560;2024-02-26T00:15:45;5.00;;;2.97;;
10719;SDS011;5411;58.386;15.560;2024-02-26T00:18:14;3.27;;;2.87;;
10719;SDS011;5411;58.386;15.560;2024-02-26T00:20:42;4.37;;;2.90;;
10719;SDS011;5411;58.386;15.560;2024-02-26T00:23:14;4.03;;;2.77;;
10719;SDS011;5411;58.386;15.560;2024-02-26T00:25:43;3.90;;;3.10;;
10719;SDS011;5411;58.386;15.560;2024-02-26T00:28:13;4.77;;;3.43;;
10719;SDS011;5411;58.386;15.560;2024-02-26T00:30:41;6.10;;;3.30;;
10719;SDS011;5411;58.386;15.560;2024-02-26T00:33:13;6.30;;;3.73;;
10719;SDS011;5411;58.386;15.560;2024-02-26T00:35:45;3.67;;;3.20;;
10719;SDS011;5411;58.386;15.560;2024-02-26T00:38:16;4.77;;;3.20;;
10719;SDS011;5411;58.386;15.560;2024-02-26T00:40:48;5.17;;;3.40;;
10719;SDS011;5411;58.386;15.560;2024-02-26T00:43:17;6.10;;;3.70;;
10719;SDS011;5411;58.386;15.560;2024-02-26T00:45:45;4.87;;;3.43;;
10719;SDS011;5411;58.386;15.560;2024-02-26T00:48:16;5.27;;;3.70;;
10719;SDS011;5411;58.386;15.560;2024-02-26T00:50:45;5.60;;;3.87;;
10719;SDS011;5411;58.386;15.560;2024-02-26T00:53:14;4.37;;;3.60;;
10719;SDS011;5411;58.386;15.560;2024-02-26T00:55:42;4.27;;;3.67;;
10719;SDS011;5411;58.386;15.560;2024-02-26T00:58:10;4.47;;;3.80;;
10719;SDS011;5411;58.386;15.560;2024-02-26T01:00:40;5.30;;;4.20;;
10719;SDS011;5411;58.386;15.560;2024-02-26T01:03:08;6.00;;;3.80;;
10719;SDS011;5411;58.386;15.560;2024-02-26T01:05:42;4.63;;;4.00;;
10719;SDS011;5411;58.386;15.560;2024-02-26T01:08:14;7.87;;;3.97;;
10719;SDS011;5411;58.386;15.560;2024-02-26T01:10:45;7.40;;;3.87;;
10719;SDS011;5411;58.386;15.560;2024-02-26T01:13:13;5.20;;;3.77;;
10719;SDS011;5411;58.386;15.560;2024-02-26T01:15:42;5.87;;;4.03;;
10719;SDS011;5411;58.386;15.560;2024-02-26T01:18:12;6.63;;;4.50;;
10719;SDS011;5411;58.386;15.560;2024-02-26T01:20:42;5.73;;;5.20;;
10719;SDS011;5411;58.386;15.560;2024-02-26T01:23:10;8.37;;;4.37;;
10719;SDS011;5411;58.386;15.560;2024-02-26T01:25:40;7.40;;;4.40;;
10719;SDS011;5411;58.386;15.560;2024-02-26T01:28:13;5.73;;;4.40;;
10719;SDS011;5411;58.386;15.560;2024-02-26T01:30:42;7.43;;;4.90;;
10719;SDS011;5411;58.386;15.560;2024-02-26T01:33:10;7.80;;;5.23;;
10719;SDS011;5411;58.386;15.560;2024-02-26T01:35:45;7.73;;;4.97;;
10719;SDS011;5411;58.386;15.560;2024-02-26T01:38:16;7.17;;;5.10;;
10719;SDS011;5411;58.386;15.560;2024-02-26T01:40:44;11.00;;;6.43;;
10719;SDS011;5411;58.386;15.560;2024-02-26T01:43:15;10.27;;;5.70;;
10719;SDS011;5411;58.386;15.560;2024-02-26T01:45:44;8.40;;;6.10;;
10719;SDS011;5411;58.386;15.560;2024-02-26T01:48:14;8.00;;;6.03;;
10719;SDS011;5411;58.386;15.560;2024-02-26T01:50:47;10.20;;;7.57;;
10719;SDS011;5411;58.386;15.560;2024-02-26T01:53:17;9.67;;;6.37;;
10719;SDS011;5411;58.386;15.560;2024-02-26T01:55:47;7.80;;;6.43;;
10719;SDS011;5411;58.386;15.560;2024-02-26T01:58:18;11.07;;;6.83;;
10719;SDS011;5411;58.386;15.560;2024-02-26T02:00:48;9.20;;;6.40;;
10719;SDS011;5411;58.386;15.560;2024-02-26T02:03:17;9.77;;;6.43;;
10719;SDS011;5411;58.386;15.560;2024-02-26T02:05:47;9.50;;;7.67;;
10719;SDS011;5411;58.386;15.560;2024-02-26T02:08:16;9.70;;;7.30;;
10719;SDS011;5411;58.386;15.560;2024-02-26T02:10:45;10.23;;;8.03;;
10719;SDS011;5411;58.386;15.560;2024-02-26T02:13:17;11.00;;;7.03;;
10719;SDS011;5411;58.386;15.560;2024-02-26T02:15:45;11.90;;;7.60;;
10719;SDS011;5411;58.386;15.560;2024-02-26T02:18:14;9.90;;;7.17;;
10719;SDS011;5411;58.386;15.560;2024-02-26T02:20:44;11.30;;;8.60;;
10719;SDS011;5411;58.386;15.560;2024-02-26T02:23:13;13.03;;;7.87;;
10719;SDS011;5411;58.386;15.560;2024-02-26T02:25:42;13.73;;;8.27;;
10719;SDS011;5411;58.386;15.560;2024-02-26T02:28:10;12.60;;;8.83;;
10719;SDS011;5411;58.386;15.560;2024-02-26T02:30:43;13.20;;;7.63;;
10719;SDS011;5411;58.386;15.560;2024-02-26T02:33:17;13.83;;;8.40;;
10719;SDS011;5411;58.386;15.560;2024-02-26T02:35:47;12.00;;;8.90;;
10719;SDS011;5411;58.386;15.560;2024-02-26T02:38:19;16.87;;;10.00;;
10719;SDS011;5411;58.386;15.560;2024-02-26T02:40:50;15.73;;;9.53;;
10719;SDS011;5411;58.386;15.560;2024-02-26T02:43:18;13.67;;;9.23;;
10719;SDS011;5411;58.386;15.560;2024-02-26T02:45:47;16.40;;;10.60;;
10719;SDS011;5411;58.386;15.560;2024-02-26T02:48:18;16.37;;;11.17;;
10719;SDS011;5411;58.386;15.560;2024-02-26T02:50:48;18.83;;;10.33;;
10719;SDS011;5411;58.386;15.560;2024-02-26T02:53:19;18.27;;;10.57;;
10719;SDS011;5411;58.386;15.560;2024-02-26T02:55:48;24.43;;;11.33;;
10719;SDS011;5411;58.386;15.560;2024-02-26T02:58:16;21.63;;;12.07;;
10719;SDS011;5411;58.386;15.560;2024-02-26T03:00:45;21.13;;;11.07;;
10719;SDS011;5411;58.386;15.560;2024-02-26T03:03:13;20.97;;;10.60;;
10719;SDS011;5411;58.386;15.560;2024-02-26T03:05:41;16.90;;;10.37;;
10719;SDS011;5411;58.386;15.560;2024-02-26T03:08:12;18.47;;;10.37;;
10719;SDS011;5411;58.386;15.560;2024-02-26T03:10:41;19.27;;;10.57;;
10719;SDS011;5411;58.386;15.560;2024-02-26T03:13:10;18.10;;;10.83;;
10719;SDS011;5411;58.386;15.560;2024-02-26T03:15:40;20.53;;;10.77;;
10719;SDS011;5411;58.386;15.560;2024-02-26T03:18:08;23.40;;;11.43;;
10719;SDS011;5411;58.386;15.560;2024-02-26T03:20:42;22.33;;;10.73;;
10719;SDS011;5411;58.386;15.560;2024-02-26T03:23:14;20.63;;;11.17;;
10719;SDS011;5411;58.386;15.560;2024-02-26T03:25:44;21.33;;;10.80;;
10719;SDS011;5411;58.386;15.560;2024-02-26T03:28:14;20.27;;;11.60;;
10719;SDS011;5411;58.386;15.560;2024-02-26T03:30:43;17.40;;;10.63;;
10719;SDS011;5411;58.386;15.560;2024-02-26T03:33:12;22.53;;;10.63;;
10719;SDS011;5411;58.386;15.560;2024-02-26T03:35:41;19.70;;;11.57;;
10719;SDS011;5411;58.386;15.560;2024-02-26T03:38:10;24.03;;;11.87;;
10719;SDS011;5411;58.386;15.560;2024-02-26T03:40:46;22.20;;;11.57;;
10719;SDS011;5411;58.386;15.560;2024-02-26T03:43:14;23.07;;;11.03;;
10719;SDS011;5411;58.386;15.560;2024-02-26T03:45:42;20.97;;;10.47;;
10719;SDS011;5411;58.386;15.560;2024-02-26T03:48:13;19.17;;;9.20;;
10719;SDS011;5411;58.386;15.560;2024-02-26T03:50:41;17.17;;;8.23;;
10719;SDS011;5411;58.386;15.560;2024-02-26T03:53:10;15.13;;;8.27;;
10719;SDS011;5411;58.386;15.560;2024-02-26T03:55:40;12.80;;;7.77;;
10719;SDS011;5411;58.386;15.560;2024-02-26T03:58:13;15.50;;;7.90;;
10719;SDS011;5411;58.386;15.560;2024-02-26T04:00:42;11.93;;;7.63;;
10719;SDS011;5411;58.386;15.560;2024-02-26T04:03:14;11.83;;;7.30;;
10719;SDS011;5411;58.386;15.560;2024-02-26T04:05:43;12.87;;;7.97;;
10719;SDS011;5411;58.386;15.560;2024-02-26T04:08:15;11.43;;;7.70;;
10719;SDS011;5411;58.386;15.560;2024-02-26T04:10:43;16.37;;;8.30;;
10719;SDS011;5411;58.386;15.560;2024-02-26T04:13:18;11.67;;;7.43;;
10719;SDS011;5411;58.386;15.560;2024-02-26T04:15:50;15.77;;;8.77;;
10719;SDS011;5411;58.386;15.560;2024-02-26T04:18:19;13.20;;;8.00;;
10719;SDS011;5411;58.386;15.560;2024-02-26T04:20:47;13.77;;;8.37;;
10719;SDS011;5411;58.386;15.560;2024-02-26T04:23:18;12.10;;;8.00;;
10719;SDS011;5411;58.386;15.560;2024-02-26T04:25:47;11.30;;;7.10;;
10719;SDS011;5411;58.386;15.560;2024-02-26T04:28:17;12.40;;;7.97;;
10719;SDS011;5411;58.386;15.560;2024-02-26T04:30:47;12.43;;;6.87;;
10719;SDS011;5411;58.386;15.560;2024-02-26T04:33:15;12.23;;;8.30;;
10719;SDS011;5411;58.386;15.560;2024-02-26T04:35:44;12.23;;;7.00;;
10719;SDS011;5411;58.386;15.560;2024-02-26T04:38:13;12.43;;;7.33;;
10719;SDS011;5411;58.386;15.560;2024-02-26T04:40:42;11.43;;;6.70;;
10719;SDS011;5411;58.386;15.560;2024-02-26T04:43:15;9.37;;;7.17;;
10719;SDS011;5411;58.386;15.560;2024-02-26T04:45:48;11.23;;;6.93;;
10719;SDS011;5411;58.386;15.560;2024-02-26T04:48:17;11.77;;;8.13;;
10719;SDS011;5411;58.386;15.560;2024-02-26T04:50:46;11.40;;;7.07;;
10719;SDS011;5411;58.386;15.560;2024-02-26T04:53:16;11.93;;;7.60;;
10719;SDS011;5411;58.386;15.560;2024-02-26T04:55:44;9.87;;;6.93;;
10719;SDS011;5411;58.386;15.560;2024-02-26T04:58:13;9.27;;;6.80;;
10719;SDS011;5411;58.386;15.560;2024-02-26T05:00:43;10.00;;;6.00;;
10719;SDS011;5411;58.386;15.560;2024-02-26T05:03:14;10.87;;;7.07;;
10719;SDS011;5411;58.386;15.560;2024-02-26T05:05:43;13.10;;;7.23;;
10719;SDS011;5411;58.386;15.560;2024-02-26T05:08:12;11.10;;;7.40;;
10719;SDS011;5411;58.386;15.560;2024-02-26T05:10:41;11.07;;;7.03;;
10719;SDS011;5411;58.386;15.560;2024-02-26T05:13:10;9.73;;;7.27;;
10719;SDS011;5411;58.386;15.560;2024-02-26T05:15:38;10.40;;;6.40;;
10719;SDS011;5411;58.386;15.560;2024-02-26T05:18:08;9.97;;;6.57;;
10719;SDS011;5411;58.386;15.560;2024-02-26T05:20:38;9.67;;;6.27;;
10719;SDS011;5411;58.386;15.560;2024-02-26T05:23:06;10.20;;;6.80;;
10719;SDS011;5411;58.386;15.560;2024-02-26T05:25:35;9.13;;;6.63;;
10719;SDS011;5411;58.386;15.560;2024-02-26T05:28:04;8.23;;;6.33;;
10719;SDS011;5411;58.386;15.560;2024-02-26T05:30:36;8.87;;;5.60;;
10719;SDS011;5411;58.386;15.560;2024-02-26T05:33:06;10.20;;;6.83;;
10719;SDS011;5411;58.386;15.560;2024-02-26T05:35:36;8.00;;;5.93;;
10719;SDS011;5411;58.386;15.560;2024-02-26T05:38:05;8.27;;;6.53;;
10719;SDS011;5411;58.386;15.560;2024-02-26T05:40:34;8.83;;;5.93;;
10719;SDS011;5411;58.386;15.560;2024-02-26T05:43:03;9.73;;;6.37;;
10719;SDS011;5411;58.386;15.560;2024-02-26T05:45:34;11.00;;;6.67;;
10719;SDS011;5411;58.386;15.560;2024-02-26T05:48:02;13.43;;;8.50;;
10719;SDS011;5411;58.386;15.560;2024-02-26T05:50:34;15.03;;;7.53;;
10719;SDS011;5411;58.386;15.560;2024-02-26T05:53:04;17.13;;;9.27;;
10719;SDS011;5411;58.386;15.560;2024-02-26T05:55:32;16.57;;;9.73;;
10719;SDS011;5411;58.386;15.560;2024-02-26T05:58:00;15.13;;;8.93;;
10719;SDS011;5411;58.386;15.560;2024-02-26T06:00:29;15.93;;;9.17;;
10719;SDS011;5411;58.386;15.560;2024-02-26T06:02:58;16.70;;;9.63;;
10719;SDS011;5411;58.386;15.560;2024-02-26T06:05:27;15.57;;;9.13;;
10719;SDS011;5411;58.386;15.560;2024-02-26T06:07:55;15.07;;;8.87;;
10719;SDS011;5411;58.386;15.560;2024-02-26T06:10:26;18.17;;;10.33;;
10719;SDS011;5411;58.386;15.560;2024-02-26T06:12:54;15.67;;;9.13;;
10719;SDS011;5411;58.386;15.560;2024-02-26T06:15:26;15.27;;;9.80;;
10719;SDS011;5411;58.386;15.560;2024-02-26T06:17:55;16.67;;;10.17;;
10719;SDS011;5411;58.386;15.560;2024-02-26T06:20:25;20.63;;;9.90;;
10719;SDS011;5411;58.386;15.560;2024-02-26T06:22:54;16.23;;;9.47;;
10719;SDS011;5411;58.386;15.560;2024-02-26T06:25:27;16.53;;;9.13;;
10719;SDS011;5411;58.386;15.560;2024-02-26T06:27:56;15.23;;;8.90;;
10719;SDS011;5411;58.386;15.560;2024-02-26T06:30:27;18.23;;;10.67;;
10719;SDS011;5411;58.386;15.560;2024-02-26T06:33:01;16.47;;;9.10;;
10719;SDS011;5411;58.386;15.560;2024-02-26T06:35:30;13.67;;;8.40;;
10719;SDS011;5411;58.386;15.560;2024-02-26T06:38:00;14.50;;;8.70;;
10719;SDS011;5411;58.386;15.560;2024-02-26T06:40:29;13.03;;;8.87;;
10719;SDS011;5411;58.386;15.560;2024-02-26T06:42:58;13.67;;;8.30;;
10719;SDS011;5411;58.386;15.560;2024-02-26T06:45:26;12.07;;;8.27;;
10719;SDS011;5411;58.386;15.560;2024-02-26T06:47:55;11.57;;;8.07;;
10719;SDS011;5411;58.386;15.560;2024-02-26T06:50:24;12.67;;;7.90;;
10719;SDS011;5411;58.386;15.560;2024-02-26T06:52:53;12.17;;;7.83;;
10719;SDS011;5411;58.386;15.560;2024-02-26T06:55:21;11.43;;;7.17;;
10719;SDS011;5411;58.386;15.560;2024-02-26T06:57:51;9.73;;;6.97;;
10719;SDS011;5411;58.386;15.560;2024-02-26T07:00:20;11.27;;;6.87;;
10719;SDS011;5411;58.386;15.560;2024-02-26T07:02:49;11.07;;;6.93;;
10719;SDS011;5411;58.386;15.560;2024-02-26T07:05:17;9.53;;;6.47;;
10719;SDS011;5411;58.386;15.560;2024-02-26T07:07:45;8.30;;;6.20;;
10719;SDS011;5411;58.386;15.560;2024-02-26T07:10:14;8.07;;;6.43;;
10719;SDS011;5411;58.386;15.560;2024-02-26T07:12:42;11.27;;;7.30;;
10719;SDS011;5411;58.386;15.560;2024-02-26T07:15:12;11.87;;;7.47;;
10719;SDS011;5411;58.386;15.560;2024-02-26T07:17:41;9.20;;;7.17;;
10719;SDS011;5411;58.386;15.560;2024-02-26T07:20:14;7.50;;;6.20;;
10719;SDS011;5411;58.386;15.560;2024-02-26T07:22:49;9.13;;;6.57;;
10719;SDS011;5411;58.386;15.560;2024-02-26T07:25:17;7.63;;;5.53;;
10719;SDS011;5411;58.386;15.560;2024-02-26T07:27:48;9.20;;;5.90;;
10719;SDS011;5411;58.386;15.560;2024-02-26T07:30:17;10.00;;;6.13;;
10719;SDS011;5411;58.386;15.560;2024-02-26T07:32:46;9.43;;;6.50;;
10719;SDS011;5411;58.386;15.560;2024-02-26T07:35:17;9.90;;;6.70;;
10719;SDS011;5411;58.386;15.560;2024-02-26T07:37:47;8.93;;;6.33;;
10719;SDS011;5411;58.386;15.560;2024-02-26T07:40:17;8.70;;;6.80;;
10719;SDS011;5411;58.386;15.560;2024-02-26T07:42:46;8.43;;;5.10;;
10719;SDS011;5411;58.386;15.560;2024-02-26T07:45:15;8.07;;;5.43;;
10719;SDS011;5411;58.386;15.560;2024-02-26T07:47:48;8.43;;;5.70;;
10719;SDS011;5411;58.386;15.560;2024-02-26T07:50:18;8.43;;;5.63;;
10719;SDS011;5411;58.386;15.560;2024-02-26T07:52:47;7.43;;;5.60;;
10719;SDS011;5411;58.386;15.560;2024-02-26T07:55:17;5.40;;;4.60;;
10719;SDS011;5411;58.386;15.560;2024-02-26T07:57:47;6.10;;;4.57;;
10719;SDS011;5411;58.386;15.560;2024-02-26T08:00:15;6.43;;;5.07;;
10719;SDS011;5411;58.386;15.560;2024-02-26T08:02:49;5.97;;;5.23;;
10719;SDS011;5411;58.386;15.560;2024-02-26T08:05:17;6.13;;;4.77;;
10719;SDS011;5411;58.386;15.560;2024-02-26T08:07:48;5.33;;;4.73;;
10719;SDS011;5411;58.386;15.560;2024-02-26T08:10:17;6.00;;;4.80;;
10719;SDS011;5411;58.386;15.560;2024-02-26T08:12:46;7.33;;;4.90;;
10719;SDS011;5411;58.386;15.560;2024-02-26T08:15:14;6.10;;;4.47;;
10719;SDS011;5411;58.386;15.560;2024-02-26T08:17:43;5.90;;;4.50;;
10719;SDS011;5411;58.386;15.560;2024-02-26T08:20:13;5.10;;;4.07;;
10719;SDS011;5411;58.386;15.560;2024-02-26T08:22:42;6.80;;;4.77;;
10719;SDS011;5411;58.386;15.560;2024-02-26T08:25:10;4.70;;;3.90;;
10719;SDS011;5411;58.386;15.560;2024-02-26T08:27:42;4.77;;;4.10;;
10719;SDS011;5411;58.386;15.560;2024-02-26T08:30:14;5.10;;;4.17;;
10719;SDS011;5411;58.386;15.560;2024-02-26T08:32:44;5.47;;;4.20;;
10719;SDS011;5411;58.386;15.560;2024-02-26T08:35:19;4.60;;;4.10;;
10719;SDS011;5411;58.386;15.560;2024-02-26T08:37:48;5.83;;;4.70;;
10719;SDS011;5411;58.386;15.560;2024-02-26T08:40:17;5.07;;;4.27;;
10719;SDS011;5411;58.386;15.560;2024-02-26T08:42:46;5.57;;;4.40;;
10719;SDS011;5411;58.386;15.560;2024-02-26T08:45:15;5.13;;;4.23;;
10719;SDS011;5411;58.386;15.560;2024-02-26T08:47:44;4.90;;;4.40;;
10719;SDS011;5411;58.386;15.560;2024-02-26T08:50:14;5.13;;;4.03;;
10719;SDS011;5411;58.386;15.560;2024-02-26T08:52:49;4.83;;;4.17;;
10719;SDS011;5411;58.386;15.560;2024-02-26T08:55:20;4.83;;;4.40;;
10719;SDS011;5411;58.386;15.560;2024-02-26T08:57:51;4.87;;;4.37;;
10719;SDS011;5411;58.386;15.560;2024-02-26T09:00:22;4.70;;;4.20;;
10719;SDS011;5411;58.386;15.560;2024-02-26T09:02:50;5.60;;;4.43;;
10719;SDS011;5411;58.386;15.560;2024-02-26T09:05:19;5.83;;;5.23;;
10719;SDS011;5411;58.386;15.560;2024-02-26T09:07:51;6.60;;;4.53;;
10719;SDS011;5411;58.386;15.560;2024-02-26T09:10:20;5.67;;;5.03;;
10719;SDS011;5411;58.386;15.560;2024-02-26T09:12:48;6.57;;;5.07;;
10719;SDS011;5411;58.386;15.560;2024-02-26T09:15:17;6.03;;;5.37;;
10719;SDS011;5411;58.386;15.560;2024-02-26T09:17:47;6.33;;;4.70;;
10719;SDS011;5411;58.386;15.560;2024-02-26T09:20:17;8.63;;;6.20;;
10719;SDS011;5411;58.386;15.560;2024-02-26T09:22:46;6.63;;;5.70;;
10719;SDS011;5411;58.386;15.560;2024-02-26T09:25:17;8.57;;;7.00;;
10719;SDS011;5411;58.386;15.560;2024-02-26T09:27:46;7.50;;;6.33;;
10719;SDS011;5411;58.386;15.560;2024-02-26T09:30:14;7.90;;;6.40;;
10719;SDS011;5411;58.386;15.560;2024-02-26T09:32:45;8.03;;;6.57;;
10719;SDS011;5411;58.386;15.560;2024-02-26T09:35:17;8.57;;;6.53;;
10719;SDS011;5411;58.386;15.560;2024-02-26T09:37:48;7.07;;;6.00;;
10719;SDS011;5411;58.386;15.560;2024-02-26T09:40:18;7.07;;;6.00;;
10719;SDS011;5411;58.386;15.560;2024-02-26T09:42:47;7.40;;;6.43;;
10719;SDS011;5411;58.386;15.560;2024-02-26T09:45:17;8.87;;;6.77;;
10719;SDS011;5411;58.386;15.560;2024-02-26T09:47:47;8.47;;;6.73;;
10719;SDS011;5411;58.386;15.560;2024-02-26T09:50:17;7.30;;;6.20;;
10719;SDS011;5411;58.386;15.560;2024-02-26T09:52:50;7.27;;;6.53;;
10719;SDS011;5411;58.386;15.560;2024-02-26T09:55:22;8.17;;;6.77;;
10719;SDS011;5411;58.386;15.560;2024-02-26T09:57:53;8.20;;;6.40;;
10719;SDS011;5411;58.386;15.560;2024-02-26T10:00:28;7.87;;;6.23;;
10719;SDS011;5411;58.386;15.560;2024-02-26T10:03:01;8.47;;;7.00;;
10719;SDS011;5411;58.386;15.560;2024-02-26T10:05:33;8.13;;;6.80;;
10719;SDS011;5411;58.386;15.560;2024-02-26T10:08:02;8.80;;;7.13;;
10719;SDS011;5411;58.386;15.560;2024-02-26T10:10:34;9.13;;;6.93;;
10719;SDS011;5411;58.386;15.560;2024-02-26T10:13:12;9.20;;;7.50;;
10719;SDS011;5411;58.386;15.560;2024-02-26T10:15:41;8.37;;;7.43;;
10719;SDS011;5411;58.386;15.560;2024-02-26T10:18:09;9.13;;;7.40;;
10719;SDS011;5411;58.386;15.560;2024-02-26T10:20:40;9.67;;;7.27;;
10719;SDS011;5411;58.386;15.560;2024-02-26T10:23:09;9.50;;;7.63;;
10719;SDS011;5411;58.386;15.560;2024-02-26T10:25:44;7.63;;;6.37;;
10719;SDS011;5411;58.386;15.560;2024-02-26T10:28:21;9.43;;;7.10;;
10719;SDS011;5411;58.386;15.560;2024-02-26T10:30:50;8.50;;;6.83;;
10719;SDS011;5411;58.386;15.560;2024-02-26T10:33:20;8.93;;;7.30;;
10719;SDS011;5411;58.386;15.560;2024-02-26T10:35:48;8.33;;;6.77;;
10719;SDS011;5411;58.386;15.560;2024-02-26T10:38:17;8.13;;;7.33;;
10719;SDS011;5411;58.386;15.560;2024-02-26T10:40:50;8.33;;;6.37;;
10719;SDS011;5411;58.386;15.560;2024-02-26T10:43:18;7.23;;;6.33;;
10719;SDS011;5411;58.386;15.560;2024-02-26T10:45:47;7.73;;;6.80;;
10719;SDS011;5411;58.386;15.560;2024-02-26T10:48:15;7.60;;;6.73;;
10719;SDS011;5411;58.386;15.560;2024-02-26T10:50:44;6.77;;;5.93;;
10719;SDS011;5411;58.386;15.560;2024-02-26T10:53:16;8.47;;;7.13;;
10719;SDS011;5411;58.386;15.560;2024-02-26T10:55:47;9.60;;;6.93;;
10719;SDS011;5411;58.386;15.560;2024-02-26T10:58:25;7.50;;;6.70;;
10719;SDS011;5411;58.386;15.560;2024-02-26T11:00:53;7.20;;;6.50;;
10719;SDS011;5411;58.386;15.560;2024-02-26T11:03:25;7.07;;;6.30;;
10719;SDS011;5411;58.386;15.560;2024-02-26T11:05:54;7.00;;;6.23;;
10719;SDS011;5411;58.386;15.560;2024-02-26T11:08:26;6.03;;;5.40;;
10719;SDS011;5411;58.386;15.560;2024-02-26T11:10:57;6.43;;;5.83;;
10719;SDS011;5411;58.386;15.560;2024-02-26T11:13:27;6.67;;;5.67;;
10719;SDS011;5411;58.386;15.560;2024-02-26T11:16:03;7.13;;;6.43;;
10719;SDS011;5411;58.386;15.560;2024-02-26T11:18:33;6.20;;;5.60;;
10719;SDS011;5411;58.386;15.560;2024-02-26T11:21:03;7.27;;;5.77;;
10719;SDS011;5411;58.386;15.560;2024-02-26T11:23:35;6.20;;;5.43;;
10719;SDS011;5411;58.386;15.560;2024-02-26T11:26:05;5.73;;;5.20;;
10719;SDS011;5411;58.386;15.560;2024-02-26T11:28:35;6.50;;;5.50;;
10719;SDS011;5411;58.386;15.560;2024-02-26T11:33:54;5.33;;;4.83;;
10719;SDS011;5411;58.386;15.560;2024-02-26T11:36:24;8.63;;;7.30;;
10719;SDS011;5411;58.386;15.560;2024-02-26T11:38:58;9.07;;;7.87;;
10719;SDS011;5411;58.386;15.560;2024-02-26T11:41:41;10.77;;;9.07;;
10719;SDS011;5411;58.386;15.560;2024-02-26T11:44:09;11.20;;;9.53;;
10719;SDS011;5411;58.386;15.560;2024-02-26T11:46:40;10.47;;;9.17;;
10719;SDS011;5411;58.386;15.560;2024-02-26T11:52:02;10.57;;;8.63;;
10719;SDS011;5411;58.386;15.560;2024-02-26T11:54:38;11.23;;;9.63;;
10719;SDS011;5411;58.386;15.560;2024-02-26T11:57:26;10.60;;;8.57;;
10719;SDS011;5411;58.386;15.560;2024-02-26T11:59:56;10.50;;;8.30;;
10719;SDS011;5411;58.386;15.560;2024-02-26T12:02:40;12.30;;;9.13;;
10719;SDS011;5411;58.386;15.560;2024-02-26T12:05:14;11.40;;;9.47;;
10719;SDS011;5411;58.386;15.560;2024-02-26T12:07:44;11.13;;;9.07;;
10719;SDS011;5411;58.386;15.560;2024-02-26T12:10:23;9.93;;;8.57;;
10719;SDS011;5411;58.386;15.560;2024-02-26T12:12:55;10.63;;;8.60;;
10719;SDS011;5411;58.386;15.560;2024-02-26T12:15:31;11.00;;;9.03;;
10719;SDS011;5411;58.386;15.560;2024-02-26T12:18:07;11.97;;;8.87;;
10719;SDS011;5411;58.386;15.560;2024-02-26T12:20:37;11.67;;;9.03;;
10719;SDS011;5411;58.386;15.560;2024-02-26T12:23:05;10.47;;;8.50;;
10719;SDS011;5411;58.386;15.560;2024-02-26T12:25:36;12.07;;;9.33;;
10719;SDS011;5411;58.386;15.560;2024-02-26T12:28:07;11.10;;;9.10;;
10719;SDS011;5411;58.386;15.560;2024-02-26T12:30:35;11.00;;;8.47;;
10719;SDS011;5411;58.386;15.560;2024-02-26T12:33:04;10.37;;;8.17;;
10719;SDS011;5411;58.386;15.560;2024-02-26T12:35:35;10.30;;;8.50;;
10719;SDS011;5411;58.386;15.560;2024-02-26T12:38:04;11.20;;;9.00;;
10719;SDS011;5411;58.386;15.560;2024-02-26T12:40:34;14.27;;;9.07;;
10719;SDS011;5411;58.386;15.560;2024-02-26T12:43:03;11.20;;;8.87;;
10719;SDS011;5411;58.386;15.560;2024-02-26T12:45:34;11.00;;;8.43;;
10719;SDS011;5411;58.386;15.560;2024-02-26T12:48:03;10.73;;;8.57;;
10719;SDS011;5411;58.386;15.560;2024-02-26T12:50:33;12.73;;;9.00;;
10719;SDS011;5411;58.386;15.560;2024-02-26T12:53:02;9.97;;;8.17;;
10719;SDS011;5411;58.386;15.560;2024-02-26T12:55:31;12.10;;;9.20;;
10719;SDS011;5411;58.386;15.560;2024-02-26T12:58:06;10.47;;;8.47;;
10719;SDS011;5411;58.386;15.560;2024-02-26T13:00:37;9.40;;;8.33;;
10719;SDS011;5411;58.386;15.560;2024-02-26T13:03:07;9.47;;;8.33;;
10719;SDS011;5411;58.386;15.560;2024-02-26T13:05:37;11.27;;;8.77;;
10719;SDS011;5411;58.386;15.560;2024-02-26T13:08:06;10.00;;;8.43;;
10719;SDS011;5411;58.386;15.560;2024-02-26T13:10:35;11.93;;;9.77;;
10719;SDS011;5411;58.386;15.560;2024-02-26T13:13:04;10.73;;;8.70;;
10719;SDS011;5411;58.386;15.560;2024-02-26T13:15:33;11.10;;;8.97;;
10719;SDS011;5411;58.386;15.560;2024-02-26T13:18:10;10.87;;;8.90;;
10719;SDS011;5411;58.386;15.560;2024-02-26T13:20:42;12.60;;;9.27;;
10719;SDS011;5411;58.386;15.560;2024-02-26T13:23:12;10.47;;;8.90;;
10719;SDS011;5411;58.386;15.560;2024-02-26T13:25:40;11.67;;;9.63;;
10719;SDS011;5411;58.386;15.560;2024-02-26T13:28:13;10.53;;;8.80;;
10719;SDS011;5411;58.386;15.560;2024-02-26T13:30:50;12.77;;;9.93;;
10719;SDS011;5411;58.386;15.560;2024-02-26T13:33:21;11.27;;;9.03;;
10719;SDS011;5411;58.386;15.560;2024-02-26T13:35:52;11.90;;;9.67;;
10719;SDS011;5411;58.386;15.560;2024-02-26T13:38:21;11.43;;;9.30;;
10719;SDS011;5411;58.386;15.560;2024-02-26T13:40:50;11.63;;;9.37;;
10719;SDS011;5411;58.386;15.560;2024-02-26T13:46:02;12.33;;;9.27;;
10719;SDS011;5411;58.386;15.560;2024-02-26T13:48:34;12.20;;;9.60;;
10719;SDS011;5411;58.386;15.560;2024-02-26T13:51:03;11.63;;;8.90;;
10719;SDS011;5411;58.386;15.560;2024-02-26T13:53:35;10.53;;;8.77;;
10719;SDS011;5411;58.386;15.560;2024-02-26T13:56:03;11.27;;;9.37;;
10719;SDS011;5411;58.386;15.560;2024-02-26T13:58:36;12.93;;;9.93;;
10719;SDS011;5411;58.386;15.560;2024-02-26T14:01:05;11.67;;;9.07;;
10719;SDS011;5411;58.386;15.560;2024-02-26T14:03:35;11.50;;;9.20;;
10719;SDS011;5411;58.386;15.560;2024-02-26T14:06:03;11.03;;;9.20;;
10719;SDS011;5411;58.386;15.560;2024-02-26T14:08:37;12.63;;;9.43;;
10719;SDS011;5411;58.386;15.560;2024-02-26T14:11:08;12.27;;;9.60;;
10719;SDS011;5411;58.386;15.560;2024-02-26T14:13:39;12.50;;;9.93;;
10719;SDS011;5411;58.386;15.560;2024-02-26T14:16:13;12.03;;;10.23;;
10719;SDS011;5411;58.386;15.560;2024-02-26T14:18:43;12.17;;;9.63;;
10719;SDS011;5411;58.386;15.560;2024-02-26T14:21:13;12.23;;;9.53;;
10719;SDS011;5411;58.386;15.560;2024-02-26T14:23:42;14.07;;;10.63;;
10719;SDS011;5411;58.386;15.560;2024-02-26T14:26:14;15.03;;;11.33;;
10719;SDS011;5411;58.386;15.560;2024-02-26T14:28:43;14.57;;;11.30;;
10719;SDS011;5411;58.386;15.560;2024-02-26T14:31:16;13.90;;;10.70;;
10719;SDS011;5411;58.386;15.560;2024-02-26T14:33:47;13.37;;;10.40;;
10719;SDS011;5411;58.386;15.560;2024-02-26T14:36:20;15.77;;;11.00;;
10719;SDS011;5411;58.386;15.560;2024-02-26T14:38:49;15.27;;;11.03;;
10719;SDS011;5411;58.386;15.560;2024-02-26T14:41:22;17.00;;;11.73;;
10719;SDS011;5411;58.386;15.560;2024-02-26T14:43:51;17.70;;;13.07;;
10719;SDS011;5411;58.386;15.560;2024-02-26T14:46:19;17.30;;;12.67;;
10719;SDS011;5411;58.386;15.560;2024-02-26T14:48:49;17.37;;;12.40;;
10719;SDS011;5411;58.386;15.560;2024-02-26T14:51:19;17.63;;;12.43;;
10719;SDS011;5411;58.386;15.560;2024-02-26T14:53:48;17.97;;;12.03;;
10719;SDS011;5411;58.386;15.560;2024-02-26T14:56:16;17.77;;;11.80;;
10719;SDS011;5411;58.386;15.560;2024-02-26T14:58:45;16.47;;;11.93;;
10719;SDS011;5411;58.386;15.560;2024-02-26T15:01:14;17.50;;;12.10;;
10719;SDS011;5411;58.386;15.560;2024-02-26T15:03:42;18.40;;;12.30;;